Terminal Aerodrome Forecast
Issued by NWS Des Moines, IA

Home | Current Version | Previous Version | Text Only | Print | Product List | Glossary On
Versions: 1 2 3 4 5 6 7 8 9 10 11 12 13 14 15 16 17 18 19 20 21 22 23 24 25 26 27 28 29 30 31 32 33 34 35 36 37
000
FTUS43 KDMX 250520
TAFDSM
TAF
KDSM 250520Z 2506/2606 10012G19KT 6SM BR VCSH OVC010
      TEMPO 2506/2509 SCT010 BKN022
     FM250900 10013G18KT 5SM -SHRA OVC008
     FM251200 07014G21KT 4SM -RA BR OVC006
     FM251900 06015G22KT P6SM SCT008 OVC014
     FM260300 06011KT P6SM BKN028=

USA.gov is the U.S. government's official web portal to all federal, state and local government web resources and services.